Flight Track Log - Related Links

Times and Time Zones

All times are in EDT time to prevent confusion due to time zone crossing. See the ASQ5958 flight status page for this flight to view local times or setup timezone preferences in your user account.

Time Position Orientation Groundspeed Altitude Reporting Facility
EDT Latitude Longitude Course Direction KTS MPH feet Rate Location/Type
Tue 06:48:53 PM 41.9667 -87.8333 169° South 200 230 2,700  Level Chicago TRACON
Tue 06:50:36 PM 41.8692 -87.7711 155° Southeast 258 297 5,100 836 Climbing Chicago Center
Tue 06:51:38 PM 41.7942 -87.7669 178° South 266 306 5,000 871 Descending Chicago Center
Tue 06:52:40 PM 41.7269 -87.8061 204° Southwest 269 310 6,900 2,177 Climbing Chicago Center
Tue 06:53:42 PM 41.6422 -87.7881 171° South 283 326 9,500 2,177 Climbing Chicago Center
Tue 06:54:00 PM 41.4398 -87.5306 169° South  Level Estimated
Tue 06:54:44 PM 41.5758 -87.7244 144° Southeast 294 338 11,400  Level Chicago Center
Tue 06:55:46 PM 41.5078 -87.6547 142° Southeast 304 350 13,200 1,258 Climbing Chicago Center
Tue 06:56:48 PM 41.4350 -87.5839 144° Southeast 319 367 14,000 1,113 Climbing Chicago Center
Tue 06:57:50 PM 41.3386 -87.5583 169° South 354 407 15,500 1,258 Climbing Chicago Center
Tue 06:58:52 PM 41.2397 -87.5400 172° South 356 410 16,600 1,056 Climbing Chicago Center
Tue 06:59:55 PM 41.1181 -87.5114 170° South 368 423 17,700 1,008 Climbing Chicago Center
Tue 07:00:57 PM 41.0139 -87.4833 169° South 379 436 18,700 919 Climbing Chicago Center
Tue 07:01:59 PM 40.9072 -87.4544 168° South 388 447 19,600 871 Climbing Chicago Center
Tue 07:03:01 PM 40.7981 -87.4236 168° South 400 460 20,500 1,016 Climbing Chicago Center
Tue 07:04:03 PM 40.6981 -87.3606 154° Southeast 400 460 21,700 1,210 Climbing Chicago Center
Tue 07:05:05 PM 40.5997 -87.2969 154° Southeast 397 457 23,000 1,306 Climbing Chicago Center
Tue 07:06:07 PM 40.4836 -87.2211 154° Southeast 390 449 24,400 1,210 Climbing Chicago Center
Tue 07:07:09 PM 40.3983 -87.1656 154° Southeast 390 449 25,500 1,238 Climbing Chicago Center
Tue 07:08:47 PM 40.2264 -87.0547 154° Southeast 380 437 27,700 1,306 Climbing Indianapolis Center
Tue 07:09:13 PM 40.1897 -87.0317 154° Southeast 379 436 28,200 955 Climbing Chicago Center
Tue 07:10:15 PM 40.0972 -86.9722 154° Southeast 374 430 29,100 918 Climbing Chicago Center
Tue 07:10:51 PM 40.0397 -86.9350 154° Southeast 375 432 29,700 980 Climbing Indianapolis Center
Tue 07:11:53 PM 39.9475 -86.8706 152° Southeast 378 435 30,700 919 Climbing Indianapolis Center
Tue 07:12:55 PM 39.8581 -86.7975 148° Southeast 381 438 31,600 1,008 Climbing Indianapolis Center
Tue 07:13:58 PM 39.7508 -86.7086 147° Southeast 384 442 32,800 1,008 Climbing Indianapolis Center
Tue 07:15:00 PM 39.6828 -86.6075 131° Southeast 378 435 33,700 919 Climbing Indianapolis Center
Tue 07:16:02 PM 39.6308 -86.4894 120° Southeast 382 440 34,700 629 Climbing Indianapolis Center
Tue 07:17:04 PM 39.5792 -86.3717 120° Southeast 383 441 35,000 145 Climbing Indianapolis Center
Tue 07:18:06 PM 39.5142 -86.2225 119° Southeast 400 460 35,000 194 Level Indianapolis Center
Tue 07:19:08 PM 39.4583 -86.0947 119° Southeast 411 473 35,400 823 Climbing Indianapolis Center
Tue 07:20:10 PM 39.4033 -85.9717 120° Southeast 401 461 36,700 774 Climbing Indianapolis Center
Tue 07:21:12 PM 39.3508 -85.8517 119° Southeast 387 445 37,000 145 Climbing Indianapolis Center
Tue 07:22:14 PM 39.2969 -85.7283 119° Southeast 396 456 37,000  Level Indianapolis Center
Tue 07:23:16 PM 39.2275 -85.5753 120° Southeast 411 473 37,000  Level Indianapolis Center
Tue 07:24:18 PM 39.1675 -85.4494 122° Southeast 413 475 37,000  Level Indianapolis Center
Tue 07:25:20 PM 39.0622 -85.3836 154° Southeast 426 490 37,000 -290 Level Indianapolis Center
Tue 07:26:22 PM 38.9503 -85.3328 161° South 427 491 36,400 -774 Descending Indianapolis Center
Tue 07:27:24 PM 38.8342 -85.2817 161° South 438 504 35,400 -677 Descending Indianapolis Center
Tue 07:28:26 PM 38.7181 -85.2297 161° South 442 509 35,000 -195 Descending Indianapolis Center
Tue 07:29:27 PM 38.5978 -85.1764 161° South 428 493 35,000  Level Indianapolis Center
Tue 07:30:29 PM 38.4617 -85.1164 161° South 442 509 35,000  Level Indianapolis Center
Tue 07:31:31 PM 38.3433 -85.0647 161° South 448 516 35,000  Level Indianapolis Center
Tue 07:32:33 PM 38.2239 -85.0122 161° South 453 521 35,000  Level Indianapolis Center
Tue 07:33:35 PM 38.1058 -84.9603 161° South 450 518 35,000  Level Indianapolis Center
Tue 07:34:37 PM 37.9883 -84.9108 162° South 447 514 35,000  Level Indianapolis Center
Tue 07:35:38 PM 37.8717 -84.8594 161° South 444 511 35,000  Level Indianapolis Center
Tue 07:36:40 PM 37.7372 -84.7992 160° South 440 506 35,000  Level Indianapolis Center
Tue 07:37:42 PM 37.6203 -84.7492 161° South 442 509 35,000 -1,016 Level Indianapolis Center
Tue 07:38:44 PM 37.5019 -84.7000 162° South 445 512 32,900 -2,293 Descending Indianapolis Center
Tue 07:39:45 PM 37.3828 -84.6508 162° South 449 517 30,300 -2,293 Descending Indianapolis Center
Tue 07:40:47 PM 37.2636 -84.5981 161° South 452 520 28,200 -2,129 Descending Indianapolis Center
Tue 07:41:49 PM 37.1367 -84.5458 162° South 472 543 25,900 -2,585 Descending Indianapolis Center
Tue 07:42:50 PM 36.9908 -84.4833 161° South 474 545 22,900 -2,683 Descending Indianapolis Center
Tue 07:43:52 PM 36.8722 -84.4331 161° South 457 526 20,400 -2,371 Descending Indianapolis Center
Tue 07:44:54 PM 36.7583 -84.3861 162° South 437 503 18,000 -2,177 Descending Indianapolis Center
Tue 07:45:56 PM 36.6461 -84.3392 161° South 428 493 15,900 -2,000 Descending Indianapolis Center
Tue 07:46:57 PM 36.5397 -84.2939 161° South 410 472 13,900 -2,000 Descending Indianapolis Center
Tue 07:47:59 PM 36.4267 -84.2469 162° South 387 445 11,800 -1,403 Descending Indianapolis Center
Tue 07:49:01 PM 36.3339 -84.2086 162° South 363 418 11,000 -415 Descending Indianapolis Center
Tue 07:50:09 PM 36.2231 -84.1647 162° South 362 417 10,900 -750 Descending Atlanta Center
Tue 07:51:09 PM 36.1397 -84.1339 163° South 339 390 9,400 -1,450 Descending Atlanta Center
Tue 07:52:09 PM 36.0728 -84.1031 160° South 321 369 8,000 -1,600 Descending Atlanta Center
Tue 07:53:09 PM 36.0144 -84.0361 137° Southeast 280 322 6,200 -1,750 Descending Atlanta Center
Tue 07:54:09 PM 35.9581 -83.9719 137° Southeast 280 322 4,500 -1,650 Descending Atlanta Center
Tue 07:55:09 PM 35.9017 -83.9258 146° Southeast 264 304 2,900 -1,200 Descending Atlanta Center
Tue 07:56:09 PM 35.8581 -83.9311 186° South 191 220 2,100 -800 Descending Atlanta Center

Login

Don't have an account? Register now (free) for customized features, flight alerts, and more!